createdAt,value
2017-03-22T00:00:22.367Z,9.6
2017-03-22T00:01:22.363Z,9.52
2017-03-22T00:02:22.128Z,9.56
2017-03-22T00:03:22.460Z,9.66
2017-03-22T00:04:22.807Z,9.67
2017-03-22T00:05:22.207Z,9.58
2017-03-22T00:06:22.257Z,9.57
2017-03-22T00:07:22.276Z,9.61
2017-03-22T00:08:22.322Z,9.58
2017-03-22T00:09:22.953Z,9.64
2017-03-22T00:10:22.703Z,9.71
2017-03-22T00:11:22.431Z,9.6
2017-03-22T00:12:22.775Z,9.61
2017-03-22T00:13:22.815Z,9.67
2017-03-22T00:14:23.127Z,9.6
2017-03-22T00:15:22.571Z,9.7
2017-03-22T00:16:22.886Z,9.53
2017-03-22T00:17:22.948Z,9.66
2017-03-22T00:18:22.968Z,9.63
2017-03-22T00:19:23.300Z,9.57
2017-03-22T00:20:22.749Z,9.58
2017-03-22T00:21:23.059Z,9.61
2017-03-22T00:22:22.814Z,9.66
2017-03-22T00:23:23.133Z,9.67
2017-03-22T00:24:23.466Z,9.61
2017-03-22T00:25:22.917Z,9.66
2017-03-22T00:26:23.235Z,9.66
2017-03-22T00:27:23.605Z,9.61
2017-03-22T00:28:23.606Z,9.6
2017-03-22T00:29:23.643Z,9.64
2017-03-22T00:30:23.097Z,9.58
2017-03-22T00:31:23.415Z,9.67
2017-03-22T00:32:23.444Z,9.61
2017-03-22T00:33:23.783Z,9.67
2017-03-22T00:34:23.535Z,9.58
2017-03-22T00:35:23.572Z,9.6
2017-03-22T00:36:23.305Z,9.67
2017-03-22T00:37:23.616Z,9.61
2017-03-22T00:38:23.651Z,9.61
2017-03-22T00:39:23.989Z,9.6
2017-03-22T00:40:23.720Z,9.61
2017-03-22T00:41:23.477Z,9.71
2017-03-22T00:42:23.790Z,9.66
2017-03-22T00:43:24.159Z,9.66
2017-03-22T00:44:24.162Z,9.52
2017-03-22T00:45:23.612Z,9.6
2017-03-22T00:46:23.931Z,9.56
2017-03-22T00:47:24.298Z,9.56
2017-03-22T00:48:24.301Z,9.56
2017-03-22T00:49:24.037Z,9.57
2017-03-22T00:50:23.762Z,9.66
2017-03-22T00:51:24.101Z,9.58
2017-03-22T00:52:23.835Z,9.6
2017-03-22T00:53:24.508Z,9.58
2017-03-22T00:54:24.544Z,9.57
2017-03-22T00:55:24.541Z,9.6
2017-03-22T00:56:23.971Z,9.49
2017-03-22T00:57:24.312Z,9.5
2017-03-22T00:58:24.681Z,9.52
2017-03-22T00:59:24.686Z,9.48
2017-03-22T01:00:24.415Z,9.5
2017-03-22T01:01:24.489Z,9.53
2017-03-22T01:02:24.510Z,9.53
2017-03-22T01:03:24.868Z,9.52
2017-03-22T01:04:24.856Z,9.5
2017-03-22T01:05:24.300Z,9.5
2017-03-22T01:06:24.651Z,9.57
2017-03-22T01:07:24.686Z,9.46
2017-03-22T01:08:24.721Z,9.53
2017-03-22T01:09:24.729Z,9.48
2017-03-22T01:10:24.484Z,9.53
2017-03-22T01:11:24.518Z,9.53
2017-03-22T01:12:24.837Z,9.53
2017-03-22T01:13:25.209Z,9.48
2017-03-22T01:14:25.205Z,9.5
2017-03-22T01:15:24.638Z,9.52
2017-03-22T01:16:24.998Z,9.48
2017-03-22T01:17:24.707Z,9.53
2017-03-22T01:18:25.072Z,9.48
2017-03-22T01:19:25.101Z,9.49
2017-03-22T01:20:25.135Z,9.53
2017-03-22T01:21:24.864Z,9.53
2017-03-22T01:22:25.206Z,9.56
2017-03-22T01:23:25.554Z,9.5
2017-03-22T01:24:25.260Z,9.49
2017-03-22T01:25:25.011Z,9.56
2017-03-22T01:26:25.013Z,9.45
2017-03-22T01:27:25.356Z,9.5
2017-03-22T01:28:25.387Z,9.57
2017-03-22T01:29:25.454Z,9.52
2017-03-22T01:30:25.155Z,9.45
2017-03-22T01:31:25.211Z,9.5
2017-03-22T01:32:25.553Z,9.4
2017-03-22T01:33:25.867Z,9.48
2017-03-22T01:34:25.644Z,9.43
2017-03-22T01:35:25.351Z,9.46
2017-03-22T01:36:25.673Z,9.48
2017-03-22T01:37:25.397Z,9.45
2017-03-22T01:38:26.044Z,9.42
2017-03-22T01:39:25.496Z,9.45
2017-03-22T01:40:25.528Z,9.38
2017-03-22T01:41:25.537Z,9.5
2017-03-22T01:42:25.595Z,9.53
2017-03-22T01:43:26.217Z,9.52
2017-03-22T01:44:25.946Z,9.34
2017-03-22T01:45:25.979Z,9.35
2017-03-22T01:46:25.712Z,9.3
2017-03-22T01:47:25.772Z,9.38
2017-03-22T01:48:26.083Z,9.39
2017-03-22T01:49:26.150Z,9.32
2017-03-22T01:50:25.871Z,9.34
2017-03-22T01:51:26.220Z,9.31
2017-03-22T01:52:26.247Z,9.28
2017-03-22T01:53:26.598Z,9.28
2017-03-22T01:54:25.990Z,9.27
2017-03-22T01:55:26.046Z,9.34
2017-03-22T01:56:26.056Z,9.32
2017-03-22T01:57:26.117Z,9.3
2017-03-22T01:58:26.766Z,9.31
2017-03-22T01:59:26.774Z,9.32
2017-03-22T02:00:26.194Z,9.35
2017-03-22T02:01:26.252Z,9.28
2017-03-22T02:02:26.907Z,9.38
2017-03-22T02:03:26.608Z,9.3
2017-03-22T02:04:26.407Z,9.27
2017-03-22T02:05:26.680Z,9.35
2017-03-22T02:06:26.427Z,9.27
2017-03-22T02:07:26.771Z,9.28
2017-03-22T02:08:27.090Z,9.34
2017-03-22T02:09:27.145Z,9.38
2017-03-22T02:10:26.872Z,9.25
2017-03-22T02:11:26.881Z,9.34
2017-03-22T02:12:26.948Z,9.23
2017-03-22T02:13:26.944Z,9.32
2017-03-22T02:14:26.741Z,9.3
2017-03-22T02:15:26.712Z,9.32
2017-03-22T02:16:26.778Z,9.24
2017-03-22T02:17:27.094Z,9.31
2017-03-22T02:18:27.135Z,9.35
2017-03-22T02:19:27.186Z,9.28
2017-03-22T02:20:26.912Z,9.2
2017-03-22T02:21:27.252Z,9.2
2017-03-22T02:22:26.965Z,9.21
2017-03-22T02:23:27.299Z,9.24
2017-03-22T02:24:27.632Z,9.21
2017-03-22T02:25:27.088Z,9.23
2017-03-22T02:26:27.395Z,9.3
2017-03-22T02:27:27.432Z,9.2
2017-03-22T02:28:27.771Z,9.16
2017-03-22T02:29:27.517Z,9.25
2017-03-22T02:30:27.261Z,9.21
2017-03-22T02:31:27.273Z,9.23
2017-03-22T02:32:27.301Z,9.2
2017-03-22T02:33:27.676Z,9.16
2017-03-22T02:34:27.392Z,9.24
2017-03-22T02:35:27.429Z,9.16
2017-03-22T02:36:27.437Z,9.21
2017-03-22T02:37:27.779Z,9.2
2017-03-22T02:38:27.814Z,9.18
2017-03-22T02:39:27.557Z,9.28
2017-03-22T02:40:27.610Z,9.16
2017-03-22T02:41:27.634Z,9.21
2017-03-22T02:42:27.649Z,9.16
2017-03-22T02:43:27.984Z,9.23
2017-03-22T02:44:28.052Z,9.24
2017-03-22T02:45:27.772Z,9.23
2017-03-22T02:46:27.789Z,9.21
2017-03-22T02:47:27.823Z,9.15
2017-03-22T02:48:28.192Z,9.18
2017-03-22T02:49:28.233Z,9.21
2017-03-22T02:50:27.950Z,9.18
2017-03-22T02:51:27.989Z,9.2
2017-03-22T02:52:27.996Z,9.27
2017-03-22T02:53:28.085Z,9.2
2017-03-22T02:54:28.379Z,9.18
2017-03-22T02:55:28.402Z,9.16
2017-03-22T02:56:28.439Z,9.15
2017-03-22T02:57:28.471Z,9.18
2017-03-22T02:58:28.207Z,9.2
2017-03-22T02:59:28.565Z,9.21
2017-03-22T03:00:28.573Z,9.16
2017-03-22T03:01:28.331Z,9.18
2017-03-22T03:02:28.342Z,9.09
2017-03-22T03:03:28.376Z,9.15
2017-03-22T03:04:28.414Z,9.1
2017-03-22T03:05:28.465Z,9.06
2017-03-22T03:06:28.503Z,9.12
2017-03-22T03:07:28.511Z,9.1
2017-03-22T03:08:28.574Z,9.04
2017-03-22T03:09:28.583Z,9.1
2017-03-22T03:10:28.611Z,9.02
2017-03-22T03:11:28.649Z,9.05
2017-03-22T03:12:28.682Z,9.06
2017-03-22T03:13:29.054Z,9.06
2017-03-22T03:14:29.086Z,9.02
2017-03-22T03:15:28.814Z,9.06
2017-03-22T03:16:28.821Z,9.04
2017-03-22T03:17:28.861Z,9.01
2017-03-22T03:18:28.892Z,9.04
2017-03-22T03:19:29.261Z,8.99
2017-03-22T03:20:28.984Z,9.01
2017-03-22T03:21:28.997Z,8.99
2017-03-22T03:22:29.028Z,9.01
2017-03-22T03:23:29.398Z,8.99
2017-03-22T03:24:29.128Z,9.02
2017-03-22T03:25:29.445Z,9.06
2017-03-22T03:26:29.167Z,9.01
2017-03-22T03:27:29.202Z,8.99
2017-03-22T03:28:29.261Z,9.01
2017-03-22T03:29:29.604Z,9.04
2017-03-22T03:30:29.638Z,9.02
2017-03-22T03:31:29.338Z,8.93
2017-03-22T03:32:29.375Z,8.97
2017-03-22T03:33:29.416Z,9.05
2017-03-22T03:34:29.781Z,9.02
2017-03-22T03:35:29.500Z,8.94
2017-03-22T03:36:29.511Z,8.96
2017-03-22T03:37:29.798Z,9.01
2017-03-22T03:38:29.881Z,8.94
2017-03-22T03:39:29.920Z,8.96
2017-03-22T03:40:29.948Z,9.05
2017-03-22T03:41:29.693Z,8.9
2017-03-22T03:42:29.744Z,8.96
2017-03-22T03:43:30.053Z,8.94
2017-03-22T03:44:30.090Z,8.88
2017-03-22T03:45:29.839Z,8.86
2017-03-22T03:46:29.852Z,8.86
2017-03-22T03:47:29.886Z,8.87
2017-03-22T03:48:30.262Z,8.86
2017-03-22T03:49:30.291Z,8.86
2017-03-22T03:50:30.320Z,8.9
2017-03-22T03:51:30.024Z,8.84
2017-03-22T03:52:30.390Z,8.87
2017-03-22T03:53:30.096Z,8.9
2017-03-22T03:54:30.429Z,8.87
2017-03-22T03:55:30.182Z,8.88
2017-03-22T03:56:30.221Z,8.87
2017-03-22T03:57:30.551Z,8.84
2017-03-22T03:58:30.566Z,8.81
2017-03-22T03:59:30.634Z,8.9
2017-03-22T04:00:30.357Z,8.87
2017-03-22T04:01:30.695Z,8.88
2017-03-22T04:02:30.707Z,8.81
2017-03-22T04:03:30.767Z,8.86
2017-03-22T04:04:31.073Z,8.88
2017-03-22T04:05:30.528Z,8.75
2017-03-22T04:06:30.563Z,8.72
2017-03-22T04:07:30.595Z,8.81
2017-03-22T04:08:30.632Z,8.88
2017-03-22T04:09:30.944Z,8.72
2017-03-22T04:10:30.716Z,8.83
2017-03-22T04:11:30.732Z,8.78
2017-03-22T04:12:30.770Z,8.72
2017-03-22T04:13:31.108Z,8.63
2017-03-22T04:14:31.145Z,8.72
2017-03-22T04:15:30.845Z,8.76
2017-03-22T04:16:30.900Z,8.73
2017-03-22T04:17:31.215Z,8.69
2017-03-22T04:18:31.257Z,8.71
2017-03-22T04:19:31.320Z,8.71
2017-03-22T04:20:31.318Z,8.63
2017-03-22T04:21:31.047Z,8.76
2017-03-22T04:22:31.087Z,8.69
2017-03-22T04:23:31.457Z,8.65
2017-03-22T04:24:31.176Z,8.62
2017-03-22T04:25:31.211Z,8.72
2017-03-22T04:26:31.216Z,8.63
2017-03-22T04:27:31.282Z,8.63
2017-03-22T04:28:31.627Z,8.55
2017-03-22T04:29:31.629Z,8.57
2017-03-22T04:30:31.386Z,8.65
2017-03-22T04:31:31.390Z,8.53
2017-03-22T04:32:31.425Z,8.54
2017-03-22T04:33:31.765Z,8.6
2017-03-22T04:34:31.517Z,8.55
2017-03-22T04:35:31.555Z,8.65
2017-03-22T04:36:31.569Z,8.63
2017-03-22T04:37:31.619Z,8.6
2017-03-22T04:38:31.656Z,8.62
2017-03-22T04:39:31.686Z,8.6
2017-03-22T04:40:32.026Z,8.62
2017-03-22T04:41:32.037Z,8.62
2017-03-22T04:42:31.768Z,8.55
2017-03-22T04:43:32.123Z,8.53
2017-03-22T04:44:31.891Z,8.55
2017-03-22T04:45:32.199Z,8.62
2017-03-22T04:46:31.923Z,8.55
2017-03-22T04:47:32.266Z,8.54
2017-03-22T04:48:32.580Z,8.55
2017-03-22T04:49:32.610Z,8.57
2017-03-22T04:50:32.035Z,8.55
2017-03-22T04:51:32.071Z,8.55
2017-03-22T04:52:32.129Z,8.57
2017-03-22T04:53:32.141Z,8.53
2017-03-22T04:54:32.198Z,8.55
2017-03-22T04:55:32.208Z,8.54
2017-03-22T04:56:32.263Z,8.5
2017-03-22T04:57:32.621Z,8.51
2017-03-22T04:58:32.311Z,8.54
2017-03-22T04:59:32.652Z,8.51
2017-03-22T05:00:32.380Z,8.51
2017-03-22T05:01:32.741Z,8.51
2017-03-22T05:02:32.755Z,8.51
2017-03-22T05:03:33.086Z,8.44
2017-03-22T05:04:32.848Z,8.48
2017-03-22T05:05:32.878Z,8.53
2017-03-22T05:06:32.913Z,8.48
2017-03-22T05:07:32.938Z,8.4
2017-03-22T05:08:33.299Z,8.51
2017-03-22T05:09:32.684Z,8.39
2017-03-22T05:10:32.741Z,8.48
2017-03-22T05:11:32.771Z,8.4
2017-03-22T05:12:32.809Z,8.39
2017-03-22T05:13:33.427Z,8.36
2017-03-22T05:14:32.882Z,8.45
2017-03-22T05:15:32.916Z,8.42
2017-03-22T05:16:32.944Z,8.4
2017-03-22T05:17:33.296Z,8.35
2017-03-22T05:18:33.327Z,8.35
2017-03-22T05:19:33.023Z,8.37
2017-03-22T05:20:33.059Z,8.37
2017-03-22T05:21:33.089Z,8.42
2017-03-22T05:22:33.461Z,8.39
2017-03-22T05:23:33.468Z,8.42
2017-03-22T05:24:33.196Z,8.4
2017-03-22T05:25:33.251Z,8.4
2017-03-22T05:26:33.260Z,8.39
2017-03-22T05:27:33.323Z,8.35
2017-03-22T05:28:33.665Z,8.37
2017-03-22T05:29:33.667Z,8.39
2017-03-22T05:30:33.446Z,8.39
2017-03-22T05:31:33.458Z,8.42
2017-03-22T05:32:34.128Z,8.37
2017-03-22T05:33:33.830Z,8.44
2017-03-22T05:34:33.570Z,8.4
2017-03-22T05:35:33.591Z,8.44
2017-03-22T05:36:33.902Z,8.39
2017-03-22T05:37:33.938Z,8.45
2017-03-22T05:38:33.693Z,8.42
2017-03-22T05:39:33.726Z,8.39
2017-03-22T05:40:33.759Z,8.45
2017-03-22T05:41:33.797Z,8.39
2017-03-22T05:42:34.139Z,8.42
2017-03-22T05:43:33.840Z,8.39
2017-03-22T05:44:33.900Z,8.36
2017-03-22T05:45:34.207Z,8.44
2017-03-22T05:46:33.941Z,8.44
2017-03-22T05:47:33.974Z,8.45
2017-03-22T05:48:34.315Z,8.47
2017-03-22T05:49:34.043Z,8.44
2017-03-22T05:50:34.075Z,8.42
2017-03-22T05:51:34.131Z,8.36
2017-03-22T05:52:34.143Z,8.36
2017-03-22T05:53:34.519Z,8.48
2017-03-22T05:54:34.243Z,8.39
2017-03-22T05:55:34.251Z,8.37
2017-03-22T05:56:34.280Z,8.42
2017-03-22T05:57:34.622Z,8.4
2017-03-22T05:58:34.383Z,8.44
2017-03-22T05:59:34.382Z,8.5
2017-03-22T06:00:34.751Z,8.55
2017-03-22T06:01:34.459Z,8.4
2017-03-22T06:02:34.487Z,8.37
2017-03-22T06:03:34.823Z,8.37
2017-03-22T06:04:34.887Z,8.42
2017-03-22T06:05:34.595Z,8.47
2017-03-22T06:06:34.949Z,8.4
2017-03-22T06:07:35.299Z,8.48
2017-03-22T06:08:34.694Z,8.42
2017-03-22T06:09:34.753Z,8.53
2017-03-22T06:10:34.790Z,8.4
2017-03-22T06:11:34.792Z,8.45
2017-03-22T06:12:34.826Z,8.5
2017-03-22T06:13:35.202Z,8.39
2017-03-22T06:14:35.202Z,8.39
2017-03-22T06:15:34.931Z,8.44
2017-03-22T06:16:34.988Z,8.57
2017-03-22T06:17:35.020Z,8.48
2017-03-22T06:18:35.421Z,8.48
2017-03-22T06:19:35.682Z,8.53
2017-03-22T06:20:35.098Z,8.54
2017-03-22T06:21:35.159Z,8.53
2017-03-22T06:22:35.206Z,8.58
2017-03-22T06:23:35.537Z,8.53
2017-03-22T06:24:35.236Z,8.6
2017-03-22T06:25:35.609Z,8.54
2017-03-22T06:26:35.327Z,8.63
2017-03-22T06:27:35.347Z,8.58
2017-03-22T06:28:35.374Z,8.62
2017-03-22T06:29:35.411Z,8.51
2017-03-22T06:30:35.463Z,8.69
2017-03-22T06:31:35.477Z,8.73
2017-03-22T06:32:35.516Z,8.63
2017-03-22T06:33:35.860Z,8.72
2017-03-22T06:34:35.604Z,8.71
2017-03-22T06:35:35.637Z,8.71
2017-03-22T06:36:35.689Z,8.71
2017-03-22T06:37:35.714Z,8.75
2017-03-22T06:38:36.324Z,8.86
2017-03-22T06:39:35.761Z,8.86
2017-03-22T06:40:35.787Z,8.87
2017-03-22T06:41:35.823Z,8.84
2017-03-22T06:42:35.883Z,8.79
2017-03-22T06:43:35.894Z,8.84
2017-03-22T06:44:35.950Z,8.69
2017-03-22T06:45:35.958Z,8.86
2017-03-22T06:46:36.001Z,8.86
2017-03-22T06:47:36.036Z,8.9
2017-03-22T06:48:36.067Z,8.81
2017-03-22T06:49:36.097Z,8.84
2017-03-22T06:50:36.130Z,8.76
2017-03-22T06:51:36.475Z,8.88
2017-03-22T06:52:36.516Z,8.87
2017-03-22T06:53:36.549Z,8.87
2017-03-22T06:54:36.294Z,8.81
2017-03-22T06:55:36.305Z,8.88
2017-03-22T06:56:36.363Z,8.91
2017-03-22T06:57:36.406Z,8.87
2017-03-22T06:58:36.715Z,8.87
2017-03-22T06:59:36.827Z,8.84
2017-03-22T07:00:36.483Z,8.86
2017-03-22T07:01:36.588Z,8.83
2017-03-22T07:02:36.855Z,8.87
2017-03-22T07:03:36.892Z,8.93
2017-03-22T07:04:38.288Z,8.96
2017-03-22T07:05:36.675Z,8.93
2017-03-22T07:06:36.719Z,8.96
2017-03-22T07:07:36.744Z,8.9
2017-03-22T07:08:37.091Z,8.96
2017-03-22T07:09:36.788Z,9.05
2017-03-22T07:10:36.824Z,9.01
2017-03-22T07:11:36.858Z,9.04
2017-03-22T07:12:37.229Z,9.01
2017-03-22T07:13:37.235Z,9.12
2017-03-22T07:14:37.019Z,9.2
2017-03-22T07:15:37.005Z,9.21
2017-03-22T07:16:37.065Z,9.21
2017-03-22T07:17:37.404Z,9.32
2017-03-22T07:18:37.138Z,9.38
2017-03-22T07:19:37.193Z,9.43
2017-03-22T07:20:37.175Z,9.42
2017-03-22T07:21:37.743Z,9.49
2017-03-22T07:22:38.064Z,9.53
2017-03-22T07:23:37.589Z,9.66
2017-03-22T07:24:37.350Z,9.66
2017-03-22T07:25:37.353Z,9.7
2017-03-22T07:26:37.767Z,9.79
2017-03-22T07:27:37.448Z,9.75
2017-03-22T07:28:37.659Z,9.79
2017-03-22T07:29:37.498Z,9.94
2017-03-22T07:30:37.861Z,10.01
2017-03-22T07:31:38.170Z,10.07
2017-03-22T07:32:38.273Z,10.18
2017-03-22T07:33:38.248Z,10.21
2017-03-22T07:34:37.675Z,10.22
2017-03-22T07:35:37.713Z,10.25
2017-03-22T07:36:37.745Z,10.24
2017-03-22T07:37:37.966Z,10.26
2017-03-22T07:38:38.460Z,10.21
2017-03-22T07:39:38.530Z,10.12
2017-03-22T07:40:38.246Z,9.99
2017-03-22T07:41:38.263Z,9.99
2017-03-22T07:42:38.402Z,10.04
2017-03-22T07:43:38.079Z,9.89
2017-03-22T07:44:38.363Z,9.81
2017-03-22T07:45:38.406Z,9.75
2017-03-22T07:46:38.107Z,9.89
2017-03-22T07:47:38.469Z,9.85
2017-03-22T07:48:38.520Z,9.73
2017-03-22T07:49:38.258Z,9.71
2017-03-22T07:50:38.556Z,9.61
2017-03-22T07:51:38.589Z,9.68
2017-03-22T07:52:38.511Z,9.57
2017-03-22T07:53:38.754Z,9.61
2017-03-22T07:54:38.554Z,9.48
2017-03-22T07:55:38.481Z,9.35
2017-03-22T07:56:38.797Z,9.27
2017-03-22T07:57:38.835Z,9.25
2017-03-22T07:58:38.872Z,9.2
2017-03-22T07:59:38.572Z,9.2
2017-03-22T08:00:38.630Z,9.21
2017-03-22T08:01:39.368Z,9.21
2017-03-22T08:02:39.339Z,9.31
2017-03-22T08:03:39.326Z,9.34
2017-03-22T08:04:38.781Z,9.45
2017-03-22T08:05:38.828Z,9.43
2017-03-22T08:06:38.865Z,9.57
2017-03-22T08:07:38.890Z,9.75
2017-03-22T08:08:39.234Z,9.7
2017-03-22T08:09:38.930Z,9.78
2017-03-22T08:10:39.150Z,9.93
2017-03-22T08:11:39.344Z,10.04
2017-03-22T08:12:39.371Z,10.19
2017-03-22T08:13:39.081Z,10.17
2017-03-22T08:14:39.155Z,10.28
2017-03-22T08:15:39.176Z,10.39
2017-03-22T08:16:39.746Z,10.44
2017-03-22T08:17:39.930Z,10.42
2017-03-22T08:18:39.703Z,10.36
2017-03-22T08:19:39.326Z,10.18
2017-03-22T08:20:39.700Z,10.22
2017-03-22T08:21:39.951Z,10.17
2017-03-22T08:22:39.705Z,10.15
2017-03-22T08:23:40.082Z,10.04
2017-03-22T08:24:39.931Z,9.94
2017-03-22T08:25:40.475Z,9.89
2017-03-22T08:26:39.862Z,9.86
2017-03-22T08:27:39.886Z,9.82
2017-03-22T08:28:39.967Z,9.96
2017-03-22T08:29:39.704Z,9.86
2017-03-22T08:30:39.718Z,9.85
2017-03-22T08:31:39.791Z,9.82
2017-03-22T08:32:39.793Z,9.6
2017-03-22T08:33:39.825Z,9.58
2017-03-22T08:34:40.142Z,9.38
2017-03-22T08:35:39.869Z,9.35
2017-03-22T08:36:39.929Z,9.38
2017-03-22T08:37:40.289Z,9.27
2017-03-22T08:38:40.007Z,9.4
2017-03-22T08:39:40.343Z,9.57
2017-03-22T08:40:40.052Z,9.71
2017-03-22T08:41:40.128Z,9.83
2017-03-22T08:42:40.422Z,9.94
2017-03-22T08:43:40.489Z,10.1
2017-03-22T08:44:40.219Z,10.22
2017-03-22T08:45:40.264Z,10.34
2017-03-22T08:46:40.263Z,10.46
2017-03-22T08:47:40.325Z,10.58
2017-03-22T08:48:40.362Z,10.66
2017-03-22T08:49:40.370Z,10.86
2017-03-22T08:50:40.446Z,11.01
2017-03-22T08:51:40.470Z,11.21
2017-03-22T08:52:40.499Z,11.25
2017-03-22T08:53:40.515Z,11.5
2017-03-22T08:54:40.897Z,11.7
2017-03-22T08:55:40.621Z,11.64
2017-03-22T08:56:40.659Z,11.8
2017-03-22T08:57:40.794Z,11.86
2017-03-22T08:58:40.732Z,11.86
2017-03-22T08:59:40.776Z,11.86
2017-03-22T09:00:40.809Z,11.86
2017-03-22T09:01:40.849Z,11.83
2017-03-22T09:02:40.894Z,11.65
2017-03-22T09:03:41.364Z,11.68
2017-03-22T09:04:41.289Z,11.53
2017-03-22T09:05:40.969Z,11.44
2017-03-22T09:06:41.004Z,11.35
2017-03-22T09:07:41.349Z,11.25
2017-03-22T09:08:42.528Z,11.11
2017-03-22T09:09:41.416Z,10.95
2017-03-22T09:10:41.491Z,10.88
2017-03-22T09:11:41.188Z,10.83
2017-03-22T09:12:41.266Z,10.81
2017-03-22T09:13:41.290Z,10.77
2017-03-22T09:14:41.330Z,10.91
2017-03-22T09:15:41.362Z,10.91
2017-03-22T09:16:41.399Z,10.89
2017-03-22T09:17:41.411Z,10.8
2017-03-22T09:18:41.477Z,10.8
2017-03-22T09:19:41.496Z,10.81
2017-03-22T09:20:41.525Z,10.76
2017-03-22T09:21:41.595Z,10.77
2017-03-22T09:22:41.596Z,10.71
2017-03-22T09:23:41.981Z,10.6
2017-03-22T09:24:41.669Z,10.58
2017-03-22T09:25:41.733Z,10.58
2017-03-22T09:26:41.740Z,10.68
2017-03-22T09:27:41.779Z,10.83
2017-03-22T09:28:41.827Z,11.1
2017-03-22T09:29:41.862Z,11.46
2017-03-22T09:30:41.914Z,11.94
2017-03-22T09:31:41.987Z,12.15
2017-03-22T09:32:42.302Z,12.45
2017-03-22T09:33:42.015Z,12.64
2017-03-22T09:34:42.047Z,12.89
2017-03-22T09:35:42.116Z,13.17
2017-03-22T09:36:42.159Z,13.54
2017-03-22T09:37:42.184Z,13.88
2017-03-22T09:38:42.237Z,14.02
2017-03-22T09:39:42.267Z,14.12
2017-03-22T09:40:42.287Z,14.2
2017-03-22T09:41:42.369Z,14.29
2017-03-22T09:42:42.394Z,14.29
2017-03-22T09:43:42.439Z,14.42
2017-03-22T09:44:42.461Z,14.53
2017-03-22T09:45:42.795Z,14.69
2017-03-22T09:46:42.556Z,14.8
2017-03-22T09:47:42.575Z,14.95
2017-03-22T09:48:42.617Z,15.02
2017-03-22T09:49:42.989Z,15.09
2017-03-22T09:50:42.722Z,15.21
2017-03-22T09:51:42.742Z,15.13
2017-03-22T09:52:42.810Z,15.06
2017-03-22T09:53:42.852Z,15.15
2017-03-22T09:54:42.870Z,14.95
2017-03-22T09:55:42.919Z,14.71
2017-03-22T09:56:42.977Z,14.74
2017-03-22T09:57:42.991Z,14.86
2017-03-22T09:58:43.041Z,14.9
2017-03-22T09:59:43.109Z,14.91
2017-03-22T10:00:43.122Z,14.99
2017-03-22T10:01:43.164Z,14.91
2017-03-22T10:02:43.217Z,14.93
2017-03-22T10:03:43.262Z,14.75
2017-03-22T10:04:43.318Z,14.64
2017-03-22T10:05:43.338Z,14.65
2017-03-22T10:06:43.681Z,14.65
2017-03-22T10:07:43.433Z,14.71
2017-03-22T10:08:43.475Z,14.87
2017-03-22T10:09:43.526Z,14.98
2017-03-22T10:10:43.875Z,15.12
2017-03-22T10:11:43.604Z,15.05
2017-03-22T10:12:43.745Z,14.95
2017-03-22T10:13:43.708Z,14.9
2017-03-22T10:14:43.748Z,14.64
2017-03-22T10:15:43.762Z,14.38
2017-03-22T10:16:43.835Z,14.13
2017-03-22T10:17:43.875Z,14.13
2017-03-22T10:18:43.954Z,13.98
2017-03-22T10:19:43.938Z,13.81
2017-03-22T10:20:44.004Z,13.65
2017-03-22T10:21:44.041Z,13.61
2017-03-22T10:22:44.082Z,13.59
2017-03-22T10:23:44.097Z,13.71
2017-03-22T10:24:44.173Z,13.73
2017-03-22T10:25:44.251Z,13.88
2017-03-22T10:26:44.274Z,13.87
2017-03-22T10:27:44.263Z,13.98
2017-03-22T10:28:44.609Z,14.01
2017-03-22T10:29:44.368Z,14.07
2017-03-22T10:30:44.413Z,13.94
2017-03-22T10:31:44.455Z,13.95
2017-03-22T10:32:44.468Z,14.14
2017-03-22T10:33:44.542Z,14.16
2017-03-22T10:34:44.576Z,14.2
2017-03-22T10:35:44.923Z,14.17
2017-03-22T10:36:44.660Z,14.16
2017-03-22T10:37:45.006Z,14.19
2017-03-22T10:38:44.743Z,14.17
2017-03-22T10:39:45.060Z,14.09
2017-03-22T10:40:44.796Z,14.1
2017-03-22T10:41:44.841Z,14.12
2017-03-22T10:42:45.185Z,14.14
2017-03-22T10:43:44.919Z,14.13
2017-03-22T10:44:45.268Z,14.09
2017-03-22T10:45:45.321Z,14.19
2017-03-22T10:46:45.065Z,14.17
2017-03-22T10:47:45.090Z,14.2
2017-03-22T10:48:45.126Z,14.25
2017-03-22T10:49:45.166Z,14.31
2017-03-22T10:50:45.207Z,14.29
2017-03-22T10:51:45.574Z,14.28
2017-03-22T10:52:45.310Z,14.2
2017-03-22T10:53:45.353Z,14.25
2017-03-22T10:54:45.700Z,14.13
2017-03-22T10:55:45.412Z,14.19
2017-03-22T10:56:45.474Z,14.13
2017-03-22T10:57:45.509Z,14.09
2017-03-22T10:58:45.563Z,14.17
2017-03-22T10:59:45.570Z,13.99
2017-03-22T11:00:45.643Z,13.79
2017-03-22T11:01:45.656Z,13.54
2017-03-22T11:02:45.716Z,13.43
2017-03-22T11:03:46.034Z,13.4
2017-03-22T11:04:45.773Z,13.44
2017-03-22T11:05:45.808Z,13.41
2017-03-22T11:06:46.151Z,13.44
2017-03-22T11:07:45.915Z,13.3
2017-03-22T11:08:46.230Z,13.17
2017-03-22T11:09:45.995Z,13.11
2017-03-22T11:10:46.013Z,12.92
2017-03-22T11:11:46.048Z,12.59
2017-03-22T11:12:46.088Z,12.42
2017-03-22T11:13:46.130Z,12.31
2017-03-22T11:14:46.472Z,12.42
2017-03-22T11:15:46.206Z,12.34
2017-03-22T11:16:46.384Z,12.27
2017-03-22T11:17:46.287Z,12.54
2017-03-22T11:18:46.661Z,12.75
2017-03-22T11:19:46.374Z,12.92
2017-03-22T11:20:46.437Z,13.02
2017-03-22T11:21:46.787Z,12.89
2017-03-22T11:22:46.827Z,12.74
2017-03-22T11:23:46.538Z,12.64
2017-03-22T11:24:46.872Z,12.51
2017-03-22T11:25:46.969Z,12.49
2017-03-22T11:26:46.959Z,12.38
2017-03-22T11:27:46.724Z,12.34
2017-03-22T11:28:46.751Z,12.42
2017-03-22T11:29:46.784Z,12.49
2017-03-22T11:30:47.145Z,12.6
2017-03-22T11:31:46.864Z,12.52
2017-03-22T11:32:46.903Z,12.42
2017-03-22T11:33:47.242Z,12.48
2017-03-22T11:34:47.009Z,12.56
2017-03-22T11:35:47.021Z,12.75
2017-03-22T11:36:47.067Z,12.96
2017-03-22T11:37:47.429Z,13.04
2017-03-22T11:38:47.198Z,13.21
2017-03-22T11:39:47.186Z,13.37
2017-03-22T11:40:47.228Z,13.52
2017-03-22T11:41:47.266Z,13.7
2017-03-22T11:42:47.305Z,13.8
2017-03-22T11:43:47.348Z,13.88
2017-03-22T11:44:47.386Z,13.92
2017-03-22T11:45:47.730Z,14.06
2017-03-22T11:46:47.468Z,14.13
2017-03-22T11:47:47.810Z,13.94
2017-03-22T11:48:47.551Z,13.94
2017-03-22T11:49:47.593Z,13.81
2017-03-22T11:50:47.704Z,13.84
2017-03-22T11:51:47.667Z,13.8
2017-03-22T11:52:47.706Z,13.83
2017-03-22T11:53:48.083Z,13.83
2017-03-22T11:54:48.117Z,13.88
2017-03-22T11:55:47.826Z,13.83
2017-03-22T11:56:47.872Z,13.7
2017-03-22T11:57:48.246Z,13.41
2017-03-22T11:58:48.106Z,13.22
2017-03-22T11:59:48.010Z,13.22
2017-03-22T12:00:48.054Z,13.27
2017-03-22T12:01:48.111Z,13.18
2017-03-22T12:02:48.123Z,13.18
2017-03-22T12:03:48.144Z,13.25
2017-03-22T12:04:48.485Z,13.38
2017-03-22T12:05:48.254Z,13.47
2017-03-22T12:06:48.264Z,13.51
2017-03-22T12:07:48.635Z,13.41
2017-03-22T12:08:48.646Z,13.4
2017-03-22T12:09:48.380Z,13.3
2017-03-22T12:10:48.722Z,13.21
2017-03-22T12:11:48.765Z,13.33
2017-03-22T12:12:48.803Z,13.29
2017-03-22T12:13:48.537Z,13.3
2017-03-22T12:14:48.584Z,13.17
2017-03-22T12:15:48.632Z,13.25
2017-03-22T12:16:48.708Z,13.33
2017-03-22T12:17:48.694Z,13.41
2017-03-22T12:18:48.771Z,13.56
2017-03-22T12:19:48.776Z,13.63
2017-03-22T12:20:48.900Z,13.71
2017-03-22T12:21:48.853Z,13.69
2017-03-22T12:22:48.897Z,13.69
2017-03-22T12:23:48.962Z,13.65
2017-03-22T12:24:48.970Z,13.62
2017-03-22T12:25:49.314Z,13.58
2017-03-22T12:26:49.047Z,13.58
2017-03-22T12:27:49.088Z,13.43
2017-03-22T12:28:49.155Z,13.33
2017-03-22T12:29:49.190Z,13.18
2017-03-22T12:30:49.535Z,13.09
2017-03-22T12:31:49.268Z,12.88
2017-03-22T12:32:49.282Z,12.69
2017-03-22T12:33:49.626Z,12.57
2017-03-22T12:34:49.734Z,12.54
2017-03-22T12:35:49.428Z,12.52
2017-03-22T12:36:49.768Z,12.54
2017-03-22T12:37:49.817Z,12.52
2017-03-22T12:38:49.649Z,12.52
2017-03-22T12:39:49.883Z,12.64
2017-03-22T12:40:50.245Z,12.74
2017-03-22T12:41:49.657Z,12.79
2017-03-22T12:42:49.695Z,12.84
2017-03-22T12:43:49.742Z,12.79
2017-03-22T12:44:49.773Z,12.75
2017-03-22T12:45:49.810Z,12.64
2017-03-22T12:46:50.158Z,12.52
2017-03-22T12:47:49.889Z,12.46
2017-03-22T12:48:49.924Z,12.45
2017-03-22T12:49:49.944Z,12.27
2017-03-22T12:50:50.010Z,12.31
2017-03-22T12:51:50.016Z,12.23
2017-03-22T12:52:50.381Z,12.2
2017-03-22T12:53:50.097Z,12.12
2017-03-22T12:54:50.156Z,12.11
2017-03-22T12:55:50.169Z,12.09
2017-03-22T12:56:50.209Z,12.19
2017-03-22T12:57:50.246Z,12.13
2017-03-22T12:58:50.358Z,12.15
2017-03-22T12:59:50.346Z,12.2
2017-03-22T13:00:50.363Z,12.23
2017-03-22T13:01:50.397Z,12.05
2017-03-22T13:02:50.440Z,12.05
2017-03-22T13:03:50.473Z,11.93
2017-03-22T13:04:50.814Z,11.87
2017-03-22T13:05:50.574Z,11.61
2017-03-22T13:06:50.612Z,11.53
2017-03-22T13:07:50.653Z,11.49
2017-03-22T13:08:50.661Z,11.47
2017-03-22T13:09:50.778Z,11.61
2017-03-22T13:10:50.759Z,11.64
2017-03-22T13:11:50.809Z,11.61